Saturday, October 25, 2014
00:43 UTC
  |  Log In   |  Register Free
Airport Search:

Owosso Community Airport
(KRNP)

Owosso Community Airport Diagram
No Airport Diagram Available

FAA data valid effective September 18, 2014 - November 13, 2014 (unless otherwise noted).

 
 
 
 
 
 
 
 
 
 
 
 
 
 

Current Aviation Weather for Owosso Community Airport (KRNP)

The most recent METAR observation for KRNP was updated at: 0014
METAR Summary (Translated METAR)
KRNP
242354Z AUTO 26003KT 10SM SCT041 13/09 A2997 RMK AO2 T01260089
K4M4
140000Z VRB05KT 25SM SKC 16/04
(13.4 nm NW from KRNP)
KFNT
242353Z 21003KT 10SM OVC043 14/09 A2997 RMK AO2 SLP153 T01390089 10172 20139 55002
(17.4 nm SE from KRNP)
TAF Summary (Translated TAF)
KFNT
(17.4 nm SE from KRNP)
241732Z 2418/2518 23006KT P6SM OVC040 FM242000 22005KT P6SM BKN025 FM250200 24003KT P6SM SCT025 FM250900 23006KT 4SM BR BKN020 FM251400 27010G18KT 4SM BR OVC015
  Airport Weather Conditions for KRNP

 Current Weather at RNP
55° F
Partly Cloudy
West winds at 3.5 mph
RNP NOAA Radar

Pressure: 29.97 in
Humidity: 78%
Wind: West at 3.5 MPH (3 KT)
Dew Point: 48.0°F
Visibility: 10.00 mi


Airport Weather Forecast for KRNP

Translated METAR and TAF for KRNP
Translated METAR for KRNP (0038 UTC 25 October 2014)
found at http://aviationweather.gov/adds/metars/
 
METAR text: KRNP 250034Z AUTO 00000KT 10SM CLR 09/08 A2997 RMK AO2 T00920078
Conditions at: KRNP (OWOSSO , MI, US) observed 0034 UTC 25 October 2014
Temperature: 9.2°C (49°F)
Dewpoint: 7.8°C (46°F) [RH = 91%]
Pressure (altimeter): 29.97 inches Hg (1015.0 mb)
Winds: calm
Visibility: 10 or more miles (16+ km)
Ceiling: at least 12,000 feet AGL
Clouds: sky clear below 12,000 feet AGL
Weather: automated observation with no human augmentation;
there may or may not be significant weather present at this time
Translated TAF for KRNP

There is no translated TAF available for this airport

Find All Airport Services Find A Hotel Find A Rental Car Find A Golf Course Find A Restaurant $100 Hamburger



FBO's on the Field
FBO Company Facility Photos Services Transportation Aviation Fuel Prices: Prices include tax
Catering Weather Repair Courtesy Rental Type 100LL JetA JetA+ MOGAS 8087
 
Owosso Community Airport

This FBO has not yet been rated
FS:Avfuel
Last Updated: Oct-03
Login to update fuel prices
SS:
Contact Owosso Community AirportMore FBO Information
 
Add another FBO Facility Photos Catering Weather Repair Courtesy Rental Type 100LL JetA JetA+ MOGAS 8087
Services Transportation Aviation Fuel Prices: Prices include tax


model-print
model-print
model-print
model-print